createdAt,value
2022-10-23T00:00:06.782Z,21.16
2022-10-23T00:00:26.809Z,21.16
2022-10-23T00:00:36.840Z,21.16
2022-10-23T00:00:46.828Z,21.14
2022-10-23T00:00:56.931Z,21.14
2022-10-23T00:01:06.984Z,21.14
2022-10-23T00:01:27.044Z,21.16
2022-10-23T00:01:37.085Z,21.14
2022-10-23T00:01:47.141Z,21.14
2022-10-23T00:01:57.179Z,21.13
2022-10-23T00:02:07.271Z,21.11
2022-10-23T00:02:27.311Z,21.11
2022-10-23T00:02:37.440Z,21.11
2022-10-23T00:02:47.579Z,21.11
2022-10-23T00:02:57.677Z,21.11
2022-10-23T00:03:07.727Z,21.11
2022-10-23T00:03:27.794Z,21.09
2022-10-23T00:03:37.849Z,21.09
2022-10-23T00:03:47.892Z,21.11
2022-10-23T00:03:57.947Z,21.09
2022-10-23T00:04:07.992Z,21.13
2022-10-23T00:04:28.049Z,21.11
2022-10-23T00:04:38.095Z,21.11
2022-10-23T00:04:48.146Z,21.13
2022-10-23T00:04:58.203Z,21.14
2022-10-23T00:05:08.269Z,21.13
2022-10-23T00:05:28.342Z,21.11
2022-10-23T00:05:38.397Z,21.11
2022-10-23T00:05:48.442Z,21.13
2022-10-23T00:05:58.516Z,21.13
2022-10-23T00:06:08.583Z,21.13
2022-10-23T00:06:28.654Z,21.13
2022-10-23T00:06:38.720Z,21.13
2022-10-23T00:06:48.781Z,21.13
2022-10-23T00:06:58.830Z,21.11
2022-10-23T00:07:08.877Z,21.13
2022-10-23T00:07:38.959Z,21.13
2022-10-23T00:07:49.010Z,21.14
2022-10-23T00:07:59.047Z,21.14
2022-10-23T00:08:09.077Z,21.16
2022-10-23T00:08:29.148Z,21.14
2022-10-23T00:08:39.191Z,21.14
2022-10-23T00:08:49.235Z,21.16
2022-10-23T00:08:59.279Z,21.16
2022-10-23T00:09:09.427Z,21.16
2022-10-23T00:09:29.390Z,21.16
2022-10-23T00:09:39.433Z,21.14
2022-10-23T00:09:49.462Z,21.17
2022-10-23T00:09:59.520Z,21.17
2022-10-23T00:10:09.582Z,21.19
2022-10-23T00:10:29.644Z,21.21
2022-10-23T00:10:39.696Z,21.20
2022-10-23T00:10:49.743Z,21.21
2022-10-23T00:10:59.797Z,21.17
2022-10-23T00:11:09.843Z,21.20
2022-10-23T00:11:29.905Z,21.20
2022-10-23T00:11:39.950Z,21.19
2022-10-23T00:11:49.994Z,21.20
2022-10-23T00:12:00.061Z,21.19
2022-10-23T00:12:10.114Z,21.20
2022-10-23T00:12:30.188Z,21.19
2022-10-23T00:12:40.565Z,21.17
2022-10-23T00:12:50.366Z,21.14
2022-10-23T00:13:00.404Z,21.16
2022-10-23T00:13:10.455Z,21.17
2022-10-23T00:13:30.523Z,21.17
2022-10-23T00:13:40.575Z,21.17
2022-10-23T00:13:50.660Z,21.17
2022-10-23T00:14:00.695Z,21.16
2022-10-23T00:14:10.753Z,21.17
2022-10-23T00:14:30.805Z,21.16
2022-10-23T00:14:40.849Z,21.19
2022-10-23T00:14:50.902Z,21.16
2022-10-23T00:15:00.936Z,21.17
2022-10-23T00:15:10.986Z,21.17
2022-10-23T00:15:31.051Z,21.17
2022-10-23T00:15:41.173Z,21.17
2022-10-23T00:16:01.234Z,21.17
2022-10-23T00:16:11.285Z,21.16
2022-10-23T00:16:31.363Z,21.17
2022-10-23T00:16:41.406Z,21.16
2022-10-23T00:16:51.444Z,21.16
2022-10-23T00:17:01.508Z,21.17
2022-10-23T00:17:11.543Z,21.17
2022-10-23T00:17:31.610Z,21.14
2022-10-23T00:17:41.933Z,21.16
2022-10-23T00:17:51.694Z,21.13
2022-10-23T00:18:01.732Z,21.14
2022-10-23T00:18:11.781Z,21.14
2022-10-23T00:18:31.851Z,21.13
2022-10-23T00:18:41.890Z,21.16
2022-10-23T00:18:51.935Z,21.13
2022-10-23T00:19:01.973Z,21.13
2022-10-23T00:19:12.021Z,21.13
2022-10-23T00:19:32.215Z,21.13
2022-10-23T00:19:42.260Z,21.13
2022-10-23T00:19:52.314Z,21.11
2022-10-23T00:20:02.353Z,21.13
2022-10-23T00:20:12.395Z,21.13
2022-10-23T00:20:32.472Z,21.14
2022-10-23T00:20:42.521Z,21.16
2022-10-23T00:20:52.568Z,21.16
2022-10-23T00:21:02.627Z,21.14
2022-10-23T00:21:12.683Z,21.16
2022-10-23T00:21:22.723Z,21.16
2022-10-23T00:21:32.760Z,21.14
2022-10-23T00:21:42.804Z,21.14
2022-10-23T00:21:52.854Z,21.14
2022-10-23T00:22:02.909Z,21.14
2022-10-23T00:22:12.974Z,21.14
2022-10-23T00:22:23.040Z,21.16
2022-10-23T00:22:33.078Z,21.14
2022-10-23T00:22:43.134Z,21.16
2022-10-23T00:22:53.178Z,21.14
2022-10-23T00:23:03.216Z,21.14
2022-10-23T00:23:13.263Z,21.16
2022-10-23T00:23:23.320Z,21.16
2022-10-23T00:23:33.357Z,21.17
2022-10-23T00:23:43.392Z,21.16
2022-10-23T00:23:53.431Z,21.17
2022-10-23T00:24:03.592Z,21.17
2022-10-23T00:24:13.504Z,21.17
2022-10-23T00:24:23.541Z,21.17
2022-10-23T00:24:33.597Z,21.16
2022-10-23T00:24:43.653Z,21.16
2022-10-23T00:24:53.698Z,21.16
2022-10-23T00:25:03.760Z,21.14
2022-10-23T00:25:13.811Z,21.16
2022-10-23T00:25:23.856Z,21.16
2022-10-23T00:25:33.904Z,21.16
2022-10-23T00:25:43.951Z,21.16
2022-10-23T00:25:53.988Z,21.19
2022-10-23T00:26:04.063Z,21.17
2022-10-23T00:26:14.110Z,21.19
2022-10-23T00:26:24.163Z,21.19
2022-10-23T00:26:34.200Z,21.17
2022-10-23T00:26:44.239Z,21.16
2022-10-23T00:26:54.268Z,21.16
2022-10-23T00:27:04.309Z,21.16
2022-10-23T00:27:24.368Z,21.17
2022-10-23T00:27:34.411Z,21.16
2022-10-23T00:27:44.871Z,21.16
2022-10-23T00:27:54.504Z,21.16
2022-10-23T00:28:04.566Z,21.16
2022-10-23T00:28:24.629Z,21.14
2022-10-23T00:28:34.671Z,21.14
2022-10-23T00:28:44.724Z,21.14
2022-10-23T00:28:54.770Z,21.14
2022-10-23T00:29:04.806Z,21.14
2022-10-23T00:29:24.883Z,21.11
2022-10-23T00:29:34.915Z,21.11
2022-10-23T00:29:44.960Z,21.11
2022-10-23T00:29:55.005Z,21.11
2022-10-23T00:30:05.063Z,21.09
2022-10-23T00:30:25.159Z,21.11
2022-10-23T00:30:35.199Z,21.06
2022-10-23T00:30:45.238Z,21.09
2022-10-23T00:30:55.285Z,21.09
2022-10-23T00:31:05.330Z,21.09
2022-10-23T00:31:25.398Z,21.08
2022-10-23T00:31:35.439Z,21.08
2022-10-23T00:31:45.474Z,21.08
2022-10-23T00:31:55.526Z,21.08
2022-10-23T00:32:05.563Z,21.09
2022-10-23T00:32:25.662Z,21.08
2022-10-23T00:32:35.724Z,21.11
2022-10-23T00:32:45.765Z,21.09
2022-10-23T00:32:55.821Z,21.08
2022-10-23T00:33:05.867Z,21.09
2022-10-23T00:33:25.930Z,21.09
2022-10-23T00:33:35.975Z,21.08
2022-10-23T00:33:46.030Z,21.09
2022-10-23T00:33:56.083Z,21.08
2022-10-23T00:34:06.131Z,21.06
2022-10-23T00:34:26.316Z,21.06
2022-10-23T00:34:36.368Z,21.05
2022-10-23T00:34:46.414Z,21.08
2022-10-23T00:34:56.455Z,21.05
2022-10-23T00:35:06.511Z,21.06
2022-10-23T00:35:26.560Z,21.04
2022-10-23T00:35:36.604Z,21.04
2022-10-23T00:35:46.648Z,21.05
2022-10-23T00:35:56.694Z,21.04
2022-10-23T00:36:06.742Z,21.05
2022-10-23T00:36:26.799Z,21.05
2022-10-23T00:36:36.839Z,21.04
2022-10-23T00:36:46.894Z,21.06
2022-10-23T00:36:56.934Z,21.05
2022-10-23T00:37:06.987Z,21.06
2022-10-23T00:37:27.075Z,21.06
2022-10-23T00:37:37.128Z,21.05
2022-10-23T00:37:47.174Z,21.05
2022-10-23T00:37:57.220Z,21.05
2022-10-23T00:38:07.257Z,21.04
2022-10-23T00:38:27.309Z,21.05
2022-10-23T00:38:37.359Z,21.05
2022-10-23T00:38:47.401Z,21.05
2022-10-23T00:38:57.443Z,21.05
2022-10-23T00:39:07.497Z,21.06
2022-10-23T00:39:27.577Z,21.06
2022-10-23T00:39:37.617Z,21.05
2022-10-23T00:39:47.670Z,21.06
2022-10-23T00:39:57.725Z,21.05
2022-10-23T00:40:07.783Z,21.06
2022-10-23T00:40:27.891Z,21.04
2022-10-23T00:40:37.988Z,21.02
2022-10-23T00:40:58.064Z,21.02
2022-10-23T00:41:08.107Z,21.02
2022-10-23T00:41:28.179Z,21.04
2022-10-23T00:41:38.215Z,21.04
2022-10-23T00:41:48.262Z,21.04
2022-10-23T00:41:58.322Z,21.02
2022-10-23T00:42:08.374Z,21.04
2022-10-23T00:42:28.441Z,21.05
2022-10-23T00:42:38.474Z,21.04
2022-10-23T00:42:48.521Z,21.05
2022-10-23T00:42:58.581Z,21.04
2022-10-23T00:43:08.636Z,21.05
2022-10-23T00:43:28.690Z,21.05
2022-10-23T00:43:38.738Z,21.05
2022-10-23T00:43:48.780Z,21.06
2022-10-23T00:43:58.813Z,21.05
2022-10-23T00:44:08.861Z,21.06
2022-10-23T00:44:28.920Z,21.05
2022-10-23T00:44:38.961Z,21.05
2022-10-23T00:44:49.005Z,21.05
2022-10-23T00:44:59.050Z,21.04
2022-10-23T00:45:09.115Z,21.04
2022-10-23T00:45:29.196Z,21.04
2022-10-23T00:45:39.233Z,21.02
2022-10-23T00:45:49.275Z,21.02
2022-10-23T00:45:59.305Z,21.01
2022-10-23T00:46:09.354Z,21.01
2022-10-23T00:46:29.409Z,20.99
2022-10-23T00:46:39.436Z,21.01
2022-10-23T00:46:49.475Z,20.99
2022-10-23T00:46:59.522Z,21.02
2022-10-23T00:47:09.576Z,20.99
2022-10-23T00:47:29.645Z,21.01
2022-10-23T00:47:39.704Z,21.01
2022-10-23T00:47:49.754Z,20.98
2022-10-23T00:47:59.806Z,21.01
2022-10-23T00:48:09.864Z,20.99
2022-10-23T00:48:29.944Z,20.99
2022-10-23T00:48:39.986Z,20.99
2022-10-23T00:48:50.040Z,20.99
2022-10-23T00:49:00.218Z,21.01
2022-10-23T00:49:10.159Z,21.01
2022-10-23T00:49:32.480Z,20.99
2022-10-23T00:49:42.691Z,20.99
2022-10-23T00:49:50.344Z,20.99
2022-10-23T00:50:00.380Z,21.02
2022-10-23T00:50:10.457Z,21.02
2022-10-23T00:50:30.523Z,21.02
2022-10-23T00:50:40.575Z,21.02
2022-10-23T00:50:50.617Z,21.02
2022-10-23T00:51:00.661Z,20.99
2022-10-23T00:51:10.701Z,21.02
2022-10-23T00:51:30.762Z,21.02
2022-10-23T00:51:40.816Z,21.02
2022-10-23T00:51:50.869Z,21.01
2022-10-23T00:52:00.909Z,21.04
2022-10-23T00:52:10.960Z,21.04
2022-10-23T00:52:31.016Z,21.05
2022-10-23T00:52:41.402Z,21.04
2022-10-23T00:52:51.202Z,21.05
2022-10-23T00:53:01.243Z,21.05
2022-10-23T00:53:11.295Z,21.05
2022-10-23T00:53:31.355Z,21.05
2022-10-23T00:53:41.393Z,21.08
2022-10-23T00:54:01.092Z,21.05
2022-10-23T00:54:23.002Z,21.04
2022-10-23T00:54:27.088Z,21.04
2022-10-23T00:54:31.841Z,21.06
2022-10-23T00:54:41.892Z,21.05
2022-10-23T00:54:51.936Z,21.05
2022-10-23T00:55:01.992Z,21.04
2022-10-23T00:55:12.024Z,21.06
2022-10-23T00:55:32.084Z,21.06
2022-10-23T00:55:42.125Z,21.04
2022-10-23T00:55:52.191Z,21.05
2022-10-23T00:56:02.236Z,21.04
2022-10-23T00:56:12.279Z,21.05
2022-10-23T00:56:32.325Z,21.05
2022-10-23T00:56:42.374Z,21.04
2022-10-23T00:56:52.414Z,21.02
2022-10-23T00:57:02.461Z,21.01
2022-10-23T00:57:12.499Z,21.02
2022-10-23T00:57:32.558Z,21.04
2022-10-23T00:57:42.603Z,21.02
2022-10-23T00:57:52.648Z,21.01
2022-10-23T00:58:02.685Z,21.02
2022-10-23T00:58:12.718Z,21.04
2022-10-23T00:58:22.772Z,21.01
2022-10-23T00:58:32.811Z,21.02
2022-10-23T00:58:42.853Z,21.02
2022-10-23T00:58:52.894Z,21.04
2022-10-23T00:59:02.940Z,21.02
2022-10-23T00:59:13.006Z,21.02
2022-10-23T00:59:23.058Z,21.04
2022-10-23T00:59:33.104Z,21.04
2022-10-23T00:59:43.147Z,21.04
2022-10-23T00:59:53.178Z,21.04
2022-10-23T01:00:03.235Z,21.04
2022-10-23T01:00:13.303Z,21.04
2022-10-23T01:00:23.346Z,21.02
2022-10-23T01:00:33.407Z,21.02
2022-10-23T01:00:43.445Z,21.02
2022-10-23T01:00:53.490Z,21.01
2022-10-23T01:01:03.535Z,21.01
2022-10-23T01:01:23.707Z,21.02
2022-10-23T01:01:33.708Z,21.04
2022-10-23T01:01:43.847Z,21.02
2022-10-23T01:01:53.863Z,21.04
2022-10-23T01:02:03.896Z,21.04
2022-10-23T01:02:23.907Z,21.04
2022-10-23T01:02:33.913Z,21.02
2022-10-23T01:02:44.501Z,21.02
2022-10-23T01:02:54.091Z,21.02
2022-10-23T01:03:04.132Z,21.01
2022-10-23T01:03:24.205Z,20.99
2022-10-23T01:03:34.258Z,20.99
2022-10-23T01:03:44.294Z,20.99
2022-10-23T01:03:54.340Z,20.98
2022-10-23T01:04:04.380Z,21.01
2022-10-23T01:04:24.564Z,21.01
2022-10-23T01:04:34.639Z,20.98
2022-10-23T01:04:44.676Z,21.02
2022-10-23T01:04:54.725Z,20.99
2022-10-23T01:05:04.786Z,21.01
2022-10-23T01:05:24.846Z,21.04
2022-10-23T01:05:34.910Z,21.02
2022-10-23T01:05:44.994Z,21.04
2022-10-23T01:05:55.055Z,21.05
2022-10-23T01:06:05.104Z,21.04
2022-10-23T01:06:25.165Z,21.04
2022-10-23T01:06:35.211Z,21.02
2022-10-23T01:06:45.256Z,21.04
2022-10-23T01:06:55.308Z,21.04
2022-10-23T01:07:05.350Z,21.05
2022-10-23T01:07:25.416Z,21.05
2022-10-23T01:07:35.457Z,21.05
2022-10-23T01:07:45.497Z,21.05
2022-10-23T01:07:55.546Z,21.05
2022-10-23T01:08:05.599Z,21.04
2022-10-23T01:08:25.779Z,21.02
2022-10-23T01:08:35.814Z,21.01
2022-10-23T01:08:45.859Z,21.01
2022-10-23T01:08:55.897Z,20.99
2022-10-23T01:09:05.955Z,20.99
2022-10-23T01:09:26.026Z,20.99
2022-10-23T01:09:36.067Z,20.99
2022-10-23T01:09:46.196Z,20.96
2022-10-23T01:09:56.249Z,20.95
2022-10-23T01:10:06.300Z,20.96
2022-10-23T01:10:26.355Z,20.95
2022-10-23T01:10:36.410Z,20.95
2022-10-23T01:10:46.447Z,20.95
2022-10-23T01:10:56.488Z,20.96
2022-10-23T01:11:06.526Z,20.93
2022-10-23T01:11:26.590Z,20.96
2022-10-23T01:11:36.622Z,20.98
2022-10-23T01:11:46.665Z,20.96
2022-10-23T01:11:56.729Z,20.98
2022-10-23T01:12:06.777Z,20.96
2022-10-23T01:12:26.847Z,20.98
2022-10-23T01:12:36.898Z,20.96
2022-10-23T01:12:46.936Z,20.95
2022-10-23T01:12:56.991Z,20.96
2022-10-23T01:13:07.048Z,20.95
2022-10-23T01:13:27.122Z,20.98
2022-10-23T01:13:37.155Z,20.98
2022-10-23T01:13:47.203Z,20.98
2022-10-23T01:13:57.278Z,20.98
2022-10-23T01:14:07.324Z,20.98
2022-10-23T01:14:27.387Z,20.99
2022-10-23T01:14:37.457Z,20.98
2022-10-23T01:14:47.499Z,20.98
2022-10-23T01:14:57.541Z,21.01
2022-10-23T01:15:07.596Z,20.99
2022-10-23T01:15:27.648Z,20.98
2022-10-23T01:15:37.679Z,20.99
2022-10-23T01:15:47.745Z,20.99
2022-10-23T01:15:57.799Z,20.99
2022-10-23T01:16:07.838Z,21.01
2022-10-23T01:16:27.894Z,20.99
2022-10-23T01:16:37.921Z,21.01
2022-10-23T01:16:47.968Z,20.99
2022-10-23T01:16:58.007Z,21.01
2022-10-23T01:17:08.058Z,21.01
2022-10-23T01:17:28.121Z,20.99
2022-10-23T01:17:40.849Z,21.02
2022-10-23T01:17:48.439Z,20.99
2022-10-23T01:17:58.404Z,20.99
2022-10-23T01:18:08.444Z,20.99
2022-10-23T01:18:28.495Z,21.01
2022-10-23T01:18:38.540Z,21.01
2022-10-23T01:18:48.587Z,21.01
2022-10-23T01:18:58.622Z,21.01
2022-10-23T01:19:08.668Z,21.02
2022-10-23T01:19:28.738Z,21.02
2022-10-23T01:19:38.789Z,21.01
2022-10-23T01:19:48.841Z,21.02
2022-10-23T01:19:58.890Z,21.01
2022-10-23T01:20:08.939Z,21.02
2022-10-23T01:20:29.004Z,21.04
2022-10-23T01:20:39.043Z,20.99
2022-10-23T01:20:49.087Z,21.01
2022-10-23T01:20:59.139Z,21.02
2022-10-23T01:21:09.193Z,21.01
2022-10-23T01:21:29.253Z,21.02
2022-10-23T01:21:39.288Z,21.02
2022-10-23T01:21:49.342Z,21.02
2022-10-23T01:21:59.395Z,21.01
2022-10-23T01:22:09.439Z,21.04
2022-10-23T01:22:29.498Z,21.04
2022-10-23T01:22:39.663Z,21.01
2022-10-23T01:22:49.660Z,21.02
2022-10-23T01:22:59.701Z,21.01
2022-10-23T01:23:09.760Z,21.01
2022-10-23T01:23:29.882Z,21.01
2022-10-23T01:23:39.927Z,20.99
2022-10-23T01:23:49.970Z,21.01
2022-10-23T01:24:00.017Z,20.99
2022-10-23T01:24:10.059Z,20.99
2022-10-23T01:24:30.128Z,20.98
2022-10-23T01:24:40.186Z,20.98
2022-10-23T01:24:50.221Z,20.98
2022-10-23T01:25:00.260Z,20.98
2022-10-23T01:25:10.301Z,20.96
2022-10-23T01:25:30.363Z,20.95
2022-10-23T01:25:40.411Z,20.95
2022-10-23T01:25:50.459Z,20.93
2022-10-23T01:26:00.503Z,20.93
2022-10-23T01:26:10.543Z,20.95
2022-10-23T01:26:30.594Z,20.91
2022-10-23T01:26:40.644Z,20.91
2022-10-23T01:26:50.691Z,20.91
2022-10-23T01:27:00.736Z,20.90
2022-10-23T01:27:10.789Z,20.89
2022-10-23T01:27:30.851Z,20.91
2022-10-23T01:27:40.895Z,20.90
2022-10-23T01:27:50.942Z,20.90
2022-10-23T01:28:00.984Z,20.90
2022-10-23T01:28:11.037Z,20.91
2022-10-23T01:28:31.086Z,20.90
2022-10-23T01:28:41.133Z,20.90
2022-10-23T01:28:51.185Z,20.89
2022-10-23T01:29:01.211Z,20.89
2022-10-23T01:29:11.261Z,20.87
2022-10-23T01:29:31.338Z,20.89
2022-10-23T01:29:41.396Z,20.89
2022-10-23T01:29:51.446Z,20.87
2022-10-23T01:30:01.507Z,20.89
2022-10-23T01:30:11.571Z,20.87
2022-10-23T01:30:31.721Z,20.86
2022-10-23T01:30:51.710Z,20.87
2022-10-23T01:31:01.746Z,20.87
2022-10-23T01:31:11.794Z,20.86
2022-10-23T01:31:32.011Z,20.84
2022-10-23T01:31:42.053Z,20.84
2022-10-23T01:31:52.121Z,20.86
2022-10-23T01:32:02.168Z,20.84
2022-10-23T01:32:12.217Z,20.84
2022-10-23T01:32:32.290Z,20.86
2022-10-23T01:32:42.570Z,20.86
2022-10-23T01:32:52.478Z,20.86
2022-10-23T01:33:02.519Z,20.86
2022-10-23T01:33:12.554Z,20.86
2022-10-23T01:33:22.598Z,20.86
2022-10-23T01:33:32.666Z,20.89
2022-10-23T01:33:42.703Z,20.89
2022-10-23T01:33:52.751Z,20.90
2022-10-23T01:34:02.791Z,20.90
2022-10-23T01:34:22.850Z,20.91
2022-10-23T01:34:32.904Z,20.89
2022-10-23T01:34:42.964Z,20.90
2022-10-23T01:34:53.010Z,20.91
2022-10-23T01:35:03.070Z,20.91
2022-10-23T01:35:13.116Z,20.90
2022-10-23T01:35:23.161Z,20.90
2022-10-23T01:35:33.204Z,20.91
2022-10-23T01:35:43.251Z,20.91
2022-10-23T01:35:53.291Z,20.93
2022-10-23T01:36:03.338Z,20.91
2022-10-23T01:36:13.389Z,20.91
2022-10-23T01:36:23.423Z,20.90
2022-10-23T01:36:33.451Z,20.93
2022-10-23T01:36:43.490Z,20.90
2022-10-23T01:36:53.540Z,20.93
2022-10-23T01:37:03.593Z,20.91
2022-10-23T01:37:13.647Z,20.93
2022-10-23T01:37:23.713Z,20.93
2022-10-23T01:37:33.764Z,20.95
2022-10-23T01:37:43.815Z,20.93
2022-10-23T01:37:53.857Z,20.95
2022-10-23T01:38:03.909Z,20.91
2022-10-23T01:38:13.963Z,20.93
2022-10-23T01:38:24.007Z,20.93
2022-10-23T01:38:34.043Z,20.93
2022-10-23T01:38:44.089Z,20.91
2022-10-23T01:38:54.154Z,20.95
2022-10-23T01:39:14.292Z,20.93
2022-10-23T01:39:24.332Z,20.96
2022-10-23T01:39:34.374Z,20.95
2022-10-23T01:39:44.420Z,20.95
2022-10-23T01:39:54.500Z,20.96
2022-10-23T01:40:04.552Z,20.98
2022-10-23T01:40:14.592Z,20.98
2022-10-23T01:40:24.637Z,20.98
2022-10-23T01:40:34.683Z,20.98
2022-10-23T01:40:44.724Z,20.99
2022-10-23T01:40:54.801Z,20.98
2022-10-23T01:41:04.844Z,20.99
2022-10-23T01:41:14.884Z,20.98
2022-10-23T01:41:24.937Z,20.99
2022-10-23T01:41:34.973Z,20.99
2022-10-23T01:41:45.018Z,20.99
2022-10-23T01:41:55.071Z,21.02
2022-10-23T01:42:05.122Z,21.01
2022-10-23T01:42:15.155Z,21.04
2022-10-23T01:42:25.216Z,21.02
2022-10-23T01:42:35.255Z,21.04
2022-10-23T01:42:45.491Z,21.04
2022-10-23T01:42:55.442Z,21.04
2022-10-23T01:43:05.480Z,21.05
2022-10-23T01:43:15.526Z,21.05
2022-10-23T01:43:25.573Z,21.05
2022-10-23T01:43:35.614Z,21.05
2022-10-23T01:43:45.663Z,21.04
2022-10-23T01:43:55.710Z,21.04
2022-10-23T01:44:05.755Z,21.04
2022-10-23T01:44:15.813Z,21.04
2022-10-23T01:44:25.857Z,21.05
2022-10-23T01:44:35.900Z,21.04
2022-10-23T01:44:45.940Z,21.04
2022-10-23T01:44:55.988Z,21.04
2022-10-23T01:45:06.043Z,21.04
2022-10-23T01:45:16.109Z,21.04
2022-10-23T01:45:26.150Z,21.04
2022-10-23T01:45:36.201Z,21.05
2022-10-23T01:45:46.244Z,21.05
2022-10-23T01:45:56.284Z,21.05
2022-10-23T01:46:06.334Z,21.04
2022-10-23T01:46:16.385Z,21.06
2022-10-23T01:46:26.433Z,21.06
2022-10-23T01:46:36.483Z,21.08
2022-10-23T01:46:46.514Z,21.06
2022-10-23T01:46:56.562Z,21.05
2022-10-23T01:47:06.610Z,21.05
2022-10-23T01:47:16.698Z,21.04
2022-10-23T01:47:26.833Z,21.04
2022-10-23T01:47:36.893Z,21.05
2022-10-23T01:47:46.947Z,21.04
2022-10-23T01:47:56.976Z,21.04
2022-10-23T01:48:07.033Z,21.04
2022-10-23T01:48:17.079Z,21.05
2022-10-23T01:48:27.125Z,21.05
2022-10-23T01:48:37.169Z,21.02
2022-10-23T01:48:47.213Z,21.02
2022-10-23T01:48:57.256Z,21.01
2022-10-23T01:49:07.305Z,21.01
2022-10-23T01:49:17.348Z,21.01
2022-10-23T01:49:27.390Z,20.99
2022-10-23T01:49:37.435Z,20.99
2022-10-23T01:49:47.478Z,21.01
2022-10-23T01:49:57.528Z,20.99
2022-10-23T01:50:07.570Z,20.98
2022-10-23T01:50:17.615Z,21.01
2022-10-23T01:50:27.661Z,20.99
2022-10-23T01:50:37.704Z,20.99
2022-10-23T01:50:47.755Z,20.98
2022-10-23T01:50:57.805Z,20.99
2022-10-23T01:51:07.844Z,20.98
2022-10-23T01:51:17.895Z,21.01
2022-10-23T01:51:27.939Z,20.99
2022-10-23T01:51:37.985Z,20.99
2022-10-23T01:51:48.036Z,20.98
2022-10-23T01:51:58.078Z,20.98
2022-10-23T01:52:08.135Z,20.98
2022-10-23T01:52:18.175Z,20.99
2022-10-23T01:52:28.245Z,20.98
2022-10-23T01:52:38.320Z,20.99
2022-10-23T01:52:48.368Z,20.98
2022-10-23T01:52:58.418Z,20.99
2022-10-23T01:53:08.457Z,20.98
2022-10-23T01:53:18.512Z,20.98
2022-10-23T01:53:28.545Z,20.98
2022-10-23T01:53:38.577Z,20.96
2022-10-23T01:53:48.625Z,20.96
2022-10-23T01:53:58.667Z,20.98
2022-10-23T01:54:08.720Z,20.96
2022-10-23T01:54:18.766Z,20.98
2022-10-23T01:54:28.811Z,20.99
2022-10-23T01:54:38.858Z,20.99
2022-10-23T01:54:48.907Z,20.98
2022-10-23T01:54:58.947Z,20.99
2022-10-23T01:55:08.992Z,21.01
2022-10-23T01:55:19.043Z,21.01
2022-10-23T01:55:29.157Z,21.01
2022-10-23T01:55:39.259Z,21.02
2022-10-23T01:55:49.334Z,21.01
2022-10-23T01:55:59.375Z,21.02
2022-10-23T01:56:09.416Z,21.04
2022-10-23T01:56:19.464Z,21.06
2022-10-23T01:56:29.531Z,21.04
2022-10-23T01:56:39.572Z,21.04
2022-10-23T01:56:49.619Z,21.05
2022-10-23T01:56:59.676Z,21.04
2022-10-23T01:57:09.730Z,21.05
2022-10-23T01:57:19.799Z,21.05
2022-10-23T01:57:29.841Z,21.05
2022-10-23T01:57:40.070Z,21.06
2022-10-23T01:57:49.997Z,21.06
2022-10-23T01:58:00.042Z,21.06
2022-10-23T01:58:10.081Z,21.04
2022-10-23T01:58:20.114Z,21.04
2022-10-23T01:58:30.170Z,21.05
2022-10-23T01:58:40.210Z,21.05
2022-10-23T01:58:50.246Z,21.06
2022-10-23T01:59:00.291Z,21.04
2022-10-23T01:59:10.339Z,21.05
2022-10-23T01:59:20.383Z,21.05
2022-10-23T01:59:30.416Z,21.05
2022-10-23T01:59:40.546Z,21.05
2022-10-23T01:59:50.457Z,21.06
2022-10-23T02:00:00.527Z,21.05
2022-10-23T02:00:10.578Z,21.04
2022-10-23T02:00:20.637Z,21.05
2022-10-23T02:00:30.699Z,21.04
2022-10-23T02:00:40.763Z,21.04
2022-10-23T02:00:50.797Z,21.04
2022-10-23T02:01:00.885Z,21.04
2022-10-23T02:01:10.993Z,21.05
2022-10-23T02:01:21.074Z,21.04
2022-10-23T02:01:31.231Z,21.02
2022-10-23T02:01:41.268Z,21.04
2022-10-23T02:01:51.330Z,21.01
2022-10-23T02:02:01.440Z,21.01
2022-10-23T02:02:11.534Z,21.02
2022-10-23T02:02:21.469Z,21.02
2022-10-23T02:02:31.608Z,20.99
2022-10-23T02:02:41.652Z,21.02
2022-10-23T02:02:51.695Z,21.01
2022-10-23T02:03:01.740Z,21.01
2022-10-23T02:03:11.778Z,21.02
2022-10-23T02:03:21.825Z,21.02
2022-10-23T02:03:31.865Z,21.01
2022-10-23T02:03:41.910Z,21.04
2022-10-23T02:03:52.028Z,21.01
2022-10-23T02:04:01.997Z,21.02
2022-10-23T02:04:22.038Z,21.02
2022-10-23T02:04:32.084Z,20.98
2022-10-23T02:04:42.129Z,21.02
2022-10-23T02:04:52.167Z,21.01
2022-10-23T02:05:02.216Z,21.02
2022-10-23T02:05:22.287Z,21.01
2022-10-23T02:05:32.338Z,20.99
2022-10-23T02:05:42.380Z,20.99
2022-10-23T02:05:52.429Z,21.01
2022-10-23T02:06:02.469Z,21.01
2022-10-23T02:06:22.537Z,21.01
2022-10-23T02:06:32.593Z,21.04
2022-10-23T02:06:42.628Z,20.99
2022-10-23T02:06:52.678Z,21.02
2022-10-23T02:07:02.720Z,21.02
2022-10-23T02:07:12.766Z,21.01
2022-10-23T02:07:22.809Z,21.01
2022-10-23T02:07:32.853Z,21.02
2022-10-23T02:07:43.216Z,20.98
2022-10-23T02:07:53.001Z,20.99
2022-10-23T02:08:03.044Z,20.99
2022-10-23T02:08:13.084Z,20.98
2022-10-23T02:08:23.131Z,20.98
2022-10-23T02:08:33.249Z,20.96
2022-10-23T02:08:43.183Z,20.95
2022-10-23T02:08:53.242Z,20.95
2022-10-23T02:09:03.284Z,20.95
2022-10-23T02:09:13.345Z,20.95
2022-10-23T02:09:23.391Z,20.96
2022-10-23T02:09:33.435Z,20.96
2022-10-23T02:09:43.474Z,20.95
2022-10-23T02:09:53.520Z,20.95
2022-10-23T02:10:03.579Z,20.96
2022-10-23T02:10:13.633Z,20.96
2022-10-23T02:10:23.685Z,20.96
2022-10-23T02:10:33.731Z,20.96
2022-10-23T02:10:43.774Z,20.96
2022-10-23T02:10:53.816Z,20.95
2022-10-23T02:11:03.851Z,20.96
2022-10-23T02:11:13.895Z,20.99
2022-10-23T02:11:23.942Z,20.98
2022-10-23T02:11:33.990Z,20.99
2022-10-23T02:11:44.040Z,20.99
2022-10-23T02:11:54.082Z,20.99
2022-10-23T02:12:04.117Z,20.98
2022-10-23T02:12:14.222Z,20.99
2022-10-23T02:12:24.347Z,20.98
2022-10-23T02:12:34.403Z,20.98
2022-10-23T02:12:44.448Z,20.96
2022-10-23T02:12:54.482Z,20.98
2022-10-23T02:13:04.525Z,20.96
2022-10-23T02:13:14.572Z,20.98
2022-10-23T02:13:24.631Z,20.95
2022-10-23T02:13:34.700Z,20.98
2022-10-23T02:13:44.747Z,20.96
2022-10-23T02:13:54.789Z,20.95
2022-10-23T02:14:04.838Z,20.95
2022-10-23T02:14:14.881Z,20.96
2022-10-23T02:14:24.922Z,20.93
2022-10-23T02:14:34.954Z,20.95
2022-10-23T02:14:45.004Z,20.95
2022-10-23T02:14:55.042Z,20.93
2022-10-23T02:15:05.098Z,20.95
2022-10-23T02:15:15.148Z,20.93
2022-10-23T02:15:25.188Z,20.91
2022-10-23T02:15:35.224Z,20.91
2022-10-23T02:15:45.279Z,20.90
2022-10-23T02:15:55.332Z,20.89
2022-10-23T02:16:05.384Z,20.89
2022-10-23T02:16:15.419Z,20.89
2022-10-23T02:16:25.461Z,20.90
2022-10-23T02:16:35.513Z,20.89
2022-10-23T02:16:45.550Z,20.89
2022-10-23T02:16:55.594Z,20.89
2022-10-23T02:17:05.626Z,20.87
2022-10-23T02:17:15.681Z,20.87
2022-10-23T02:17:25.721Z,20.86
2022-10-23T02:17:35.768Z,20.84
2022-10-23T02:17:45.807Z,20.86
2022-10-23T02:17:55.855Z,20.86
2022-10-23T02:18:05.892Z,20.86
2022-10-23T02:18:15.939Z,20.87
2022-10-23T02:18:25.982Z,20.84
2022-10-23T02:18:36.054Z,20.87
2022-10-23T02:18:46.090Z,20.86
2022-10-23T02:18:56.143Z,20.84
2022-10-23T02:19:06.672Z,20.86
2022-10-23T02:19:16.278Z,20.84
2022-10-23T02:19:26.313Z,20.86
2022-10-23T02:19:36.369Z,20.86
2022-10-23T02:19:46.459Z,20.86
2022-10-23T02:19:56.534Z,20.86
2022-10-23T02:20:06.593Z,20.86
2022-10-23T02:20:16.629Z,20.87
2022-10-23T02:20:26.665Z,20.87
2022-10-23T02:20:36.750Z,20.86
2022-10-23T02:20:46.817Z,20.86
2022-10-23T02:20:56.853Z,20.86
2022-10-23T02:21:06.887Z,20.86
2022-10-23T02:21:16.930Z,20.87
2022-10-23T02:21:26.966Z,20.87
2022-10-23T02:21:37.004Z,20.87
2022-10-23T02:21:47.042Z,20.89
2022-10-23T02:21:57.094Z,20.89
2022-10-23T02:22:07.136Z,20.89
2022-10-23T02:22:17.173Z,20.87
2022-10-23T02:22:27.211Z,20.89
2022-10-23T02:22:37.267Z,20.90
2022-10-23T02:22:47.295Z,20.90
2022-10-23T02:22:57.354Z,20.90
2022-10-23T02:23:07.396Z,20.90
2022-10-23T02:23:17.435Z,20.90
2022-10-23T02:23:27.480Z,20.91
2022-10-23T02:23:37.543Z,20.91
2022-10-23T02:23:48.821Z,20.93
2022-10-23T02:23:57.586Z,20.91
2022-10-23T02:24:07.632Z,20.91
2022-10-23T02:24:17.667Z,20.91
2022-10-23T02:24:27.697Z,20.93
2022-10-23T02:24:37.723Z,20.93
2022-10-23T02:24:47.752Z,20.93
2022-10-23T02:24:57.792Z,20.91